sensor_id;sensor_type;location;lat;lon;timestamp;temperature;humidity
6114;DHT22;3087;48.392;10.836;2023-04-06T00:01:07;3.80;99.90
6114;DHT22;3087;48.392;10.836;2023-04-06T00:03:33;4.10;99.90
6114;DHT22;3087;48.392;10.836;2023-04-06T00:05:58;3.80;99.90
6114;DHT22;3087;48.392;10.836;2023-04-06T00:08:25;3.70;99.90
6114;DHT22;3087;48.392;10.836;2023-04-06T00:10:51;3.70;99.90
6114;DHT22;3087;48.392;10.836;2023-04-06T00:13:16;3.70;99.90
6114;DHT22;3087;48.392;10.836;2023-04-06T00:15:42;3.70;99.90
6114;DHT22;3087;48.392;10.836;2023-04-06T00:18:07;3.80;99.90
6114;DHT22;3087;48.392;10.836;2023-04-06T00:20:33;3.80;99.90
6114;DHT22;3087;48.392;10.836;2023-04-06T00:22:59;3.70;99.90
6114;DHT22;3087;48.392;10.836;2023-04-06T00:25:25;3.70;99.90
6114;DHT22;3087;48.392;10.836;2023-04-06T00:27:51;3.70;99.90
6114;DHT22;3087;48.392;10.836;2023-04-06T00:30:17;3.60;99.90
6114;DHT22;3087;48.392;10.836;2023-04-06T00:32:42;3.60;99.90
6114;DHT22;3087;48.392;10.836;2023-04-06T00:35:08;3.80;99.90
6114;DHT22;3087;48.392;10.836;2023-04-06T00:37:34;3.60;99.90
6114;DHT22;3087;48.392;10.836;2023-04-06T00:40:00;3.50;99.90
6114;DHT22;3087;48.392;10.836;2023-04-06T00:42:25;3.60;99.90
6114;DHT22;3087;48.392;10.836;2023-04-06T00:44:53;3.50;99.90
6114;DHT22;3087;48.392;10.836;2023-04-06T00:47:19;3.50;99.90
6114;DHT22;3087;48.392;10.836;2023-04-06T00:49:44;3.60;99.90
6114;DHT22;3087;48.392;10.836;2023-04-06T00:52:10;3.70;99.90
6114;DHT22;3087;48.392;10.836;2023-04-06T00:54:36;3.60;99.90
6114;DHT22;3087;48.392;10.836;2023-04-06T00:57:02;3.60;99.90
6114;DHT22;3087;48.392;10.836;2023-04-06T00:59:28;3.60;99.90
6114;DHT22;3087;48.392;10.836;2023-04-06T01:01:54;3.50;99.90
6114;DHT22;3087;48.392;10.836;2023-04-06T01:04:20;3.50;99.90
6114;DHT22;3087;48.392;10.836;2023-04-06T01:06:48;3.50;99.90
6114;DHT22;3087;48.392;10.836;2023-04-06T01:09:14;3.50;99.90
6114;DHT22;3087;48.392;10.836;2023-04-06T01:11:40;3.50;99.90
6114;DHT22;3087;48.392;10.836;2023-04-06T01:14:07;3.40;99.90
6114;DHT22;3087;48.392;10.836;2023-04-06T01:16:33;3.30;99.90
6114;DHT22;3087;48.392;10.836;2023-04-06T01:18:59;3.20;99.90
6114;DHT22;3087;48.392;10.836;2023-04-06T01:21:25;3.20;99.90
6114;DHT22;3087;48.392;10.836;2023-04-06T01:23:51;3.20;99.90
6114;DHT22;3087;48.392;10.836;2023-04-06T01:26:16;3.30;99.90
6114;DHT22;3087;48.392;10.836;2023-04-06T01:28:42;3.30;99.90
6114;DHT22;3087;48.392;10.836;2023-04-06T01:31:09;3.30;99.90
6114;DHT22;3087;48.392;10.836;2023-04-06T01:33:35;3.40;99.90
6114;DHT22;3087;48.392;10.836;2023-04-06T01:36:02;3.70;99.90
6114;DHT22;3087;48.392;10.836;2023-04-06T01:38:28;3.30;99.90
6114;DHT22;3087;48.392;10.836;2023-04-06T01:40:54;3.30;99.90
6114;DHT22;3087;48.392;10.836;2023-04-06T01:43:20;3.20;99.90
6114;DHT22;3087;48.392;10.836;2023-04-06T01:45:46;3.20;99.90
6114;DHT22;3087;48.392;10.836;2023-04-06T01:48:12;3.40;99.90
6114;DHT22;3087;48.392;10.836;2023-04-06T01:50:37;3.50;99.90
6114;DHT22;3087;48.392;10.836;2023-04-06T01:53:03;3.10;99.90
6114;DHT22;3087;48.392;10.836;2023-04-06T01:55:29;3.10;99.90
6114;DHT22;3087;48.392;10.836;2023-04-06T01:57:54;3.30;99.90
6114;DHT22;3087;48.392;10.836;2023-04-06T02:00:20;3.10;99.90
6114;DHT22;3087;48.392;10.836;2023-04-06T02:02:46;3.20;99.90
6114;DHT22;3087;48.392;10.836;2023-04-06T02:05:11;3.50;99.90
6114;DHT22;3087;48.392;10.836;2023-04-06T02:07:37;3.40;99.90
6114;DHT22;3087;48.392;10.836;2023-04-06T02:10:03;3.20;99.90
6114;DHT22;3087;48.392;10.836;2023-04-06T02:12:29;3.10;99.90
6114;DHT22;3087;48.392;10.836;2023-04-06T02:14:54;2.70;99.90
6114;DHT22;3087;48.392;10.836;2023-04-06T02:17:20;2.60;99.90
6114;DHT22;3087;48.392;10.836;2023-04-06T02:19:46;2.70;99.90
6114;DHT22;3087;48.392;10.836;2023-04-06T02:22:11;2.60;99.90
6114;DHT22;3087;48.392;10.836;2023-04-06T02:24:37;2.30;99.90
6114;DHT22;3087;48.392;10.836;2023-04-06T02:27:03;2.60;99.90
6114;DHT22;3087;48.392;10.836;2023-04-06T02:29:29;2.50;99.90
6114;DHT22;3087;48.392;10.836;2023-04-06T02:31:54;2.60;99.90
6114;DHT22;3087;48.392;10.836;2023-04-06T02:34:20;5.00;99.90
6114;DHT22;3087;48.392;10.836;2023-04-06T02:36:46;2.60;99.90
6114;DHT22;3087;48.392;10.836;2023-04-06T02:39:13;2.60;99.90
6114;DHT22;3087;48.392;10.836;2023-04-06T02:41:39;3.00;99.90
6114;DHT22;3087;48.392;10.836;2023-04-06T02:44:07;2.80;99.90
6114;DHT22;3087;48.392;10.836;2023-04-06T02:46:33;4.80;99.90
6114;DHT22;3087;48.392;10.836;2023-04-06T02:48:59;2.80;99.90
6114;DHT22;3087;48.392;10.836;2023-04-06T02:51:26;2.80;99.90
6114;DHT22;3087;48.392;10.836;2023-04-06T02:53:52;2.40;99.90
6114;DHT22;3087;48.392;10.836;2023-04-06T02:56:19;0.70;99.90
6114;DHT22;3087;48.392;10.836;2023-04-06T02:58:46;0.60;99.90
6114;DHT22;3087;48.392;10.836;2023-04-06T03:01:12;2.40;99.90
6114;DHT22;3087;48.392;10.836;2023-04-06T03:03:37;2.00;99.90
6114;DHT22;3087;48.392;10.836;2023-04-06T03:06:03;2.10;99.90
6114;DHT22;3087;48.392;10.836;2023-04-06T03:08:29;2.00;99.90
6114;DHT22;3087;48.392;10.836;2023-04-06T03:10:55;2.90;99.90
6114;DHT22;3087;48.392;10.836;2023-04-06T03:13:21;1.90;99.90
6114;DHT22;3087;48.392;10.836;2023-04-06T03:15:47;1.80;99.90
6114;DHT22;3087;48.392;10.836;2023-04-06T03:18:12;1.80;99.90
6114;DHT22;3087;48.392;10.836;2023-04-06T03:20:38;2.50;99.90
6114;DHT22;3087;48.392;10.836;2023-04-06T03:23:04;1.80;99.90
6114;DHT22;3087;48.392;10.836;2023-04-06T03:25:29;3.10;99.90
6114;DHT22;3087;48.392;10.836;2023-04-06T03:27:58;3.20;99.90
6114;DHT22;3087;48.392;10.836;2023-04-06T03:30:23;3.60;99.90
6114;DHT22;3087;48.392;10.836;2023-04-06T03:32:49;2.00;99.90
6114;DHT22;3087;48.392;10.836;2023-04-06T03:35:15;1.20;99.90
6114;DHT22;3087;48.392;10.836;2023-04-06T03:37:40;1.30;99.90
6114;DHT22;3087;48.392;10.836;2023-04-06T03:40:06;2.80;99.90
6114;DHT22;3087;48.392;10.836;2023-04-06T03:42:32;1.40;99.90
6114;DHT22;3087;48.392;10.836;2023-04-06T03:44:58;2.70;99.90
6114;DHT22;3087;48.392;10.836;2023-04-06T03:47:24;1.60;99.90
6114;DHT22;3087;48.392;10.836;2023-04-06T03:49:50;1.70;99.90
6114;DHT22;3087;48.392;10.836;2023-04-06T03:52:16;3.00;99.90
6114;DHT22;3087;48.392;10.836;2023-04-06T03:54:42;2.00;99.90
6114;DHT22;3087;48.392;10.836;2023-04-06T03:57:07;1.80;99.90
6114;DHT22;3087;48.392;10.836;2023-04-06T03:59:33;2.30;99.90
6114;DHT22;3087;48.392;10.836;2023-04-06T04:01:59;3.00;99.90
6114;DHT22;3087;48.392;10.836;2023-04-06T04:04:25;2.40;99.90
6114;DHT22;3087;48.392;10.836;2023-04-06T04:06:51;2.30;99.90
6114;DHT22;3087;48.392;10.836;2023-04-06T04:09:16;3.20;99.90
6114;DHT22;3087;48.392;10.836;2023-04-06T04:11:42;2.50;99.90
6114;DHT22;3087;48.392;10.836;2023-04-06T04:14:08;3.90;99.90
6114;DHT22;3087;48.392;10.836;2023-04-06T04:16:33;1.30;99.90
6114;DHT22;3087;48.392;10.836;2023-04-06T04:18:59;2.50;99.90
6114;DHT22;3087;48.392;10.836;2023-04-06T04:21:24;1.30;99.90
6114;DHT22;3087;48.392;10.836;2023-04-06T04:23:51;1.50;99.90
6114;DHT22;3087;48.392;10.836;2023-04-06T04:26:18;1.60;99.90
6114;DHT22;3087;48.392;10.836;2023-04-06T04:28:43;1.70;99.90
6114;DHT22;3087;48.392;10.836;2023-04-06T04:31:09;1.90;99.90
6114;DHT22;3087;48.392;10.836;2023-04-06T04:33:35;3.20;99.90
6114;DHT22;3087;48.392;10.836;2023-04-06T04:36:01;1.70;99.90
6114;DHT22;3087;48.392;10.836;2023-04-06T04:38:27;1.80;99.90
6114;DHT22;3087;48.392;10.836;2023-04-06T04:40:53;1.90;99.90
6114;DHT22;3087;48.392;10.836;2023-04-06T04:43:18;1.90;99.90
6114;DHT22;3087;48.392;10.836;2023-04-06T04:45:44;1.90;99.90
6114;DHT22;3087;48.392;10.836;2023-04-06T04:48:10;2.10;99.90
6114;DHT22;3087;48.392;10.836;2023-04-06T04:50:35;1.60;99.90
6114;DHT22;3087;48.392;10.836;2023-04-06T04:53:01;3.00;99.90
6114;DHT22;3087;48.392;10.836;2023-04-06T04:55:27;1.40;99.90
6114;DHT22;3087;48.392;10.836;2023-04-06T04:57:54;2.00;99.90
6114;DHT22;3087;48.392;10.836;2023-04-06T05:00:20;1.00;99.90
6114;DHT22;3087;48.392;10.836;2023-04-06T05:02:46;0.90;99.90
6114;DHT22;3087;48.392;10.836;2023-04-06T05:05:11;1.00;99.90
6114;DHT22;3087;48.392;10.836;2023-04-06T05:07:37;1.20;99.90
6114;DHT22;3087;48.392;10.836;2023-04-06T05:10:03;1.30;99.90
6114;DHT22;3087;48.392;10.836;2023-04-06T05:12:29;1.30;99.90
6114;DHT22;3087;48.392;10.836;2023-04-06T05:14:55;1.20;99.90
6114;DHT22;3087;48.392;10.836;2023-04-06T05:17:20;1.30;99.90
6114;DHT22;3087;48.392;10.836;2023-04-06T05:19:46;1.60;99.90
6114;DHT22;3087;48.392;10.836;2023-04-06T05:22:12;1.90;99.90
6114;DHT22;3087;48.392;10.836;2023-04-06T05:24:39;2.20;99.90
6114;DHT22;3087;48.392;10.836;2023-04-06T05:27:05;1.80;99.90
6114;DHT22;3087;48.392;10.836;2023-04-06T05:29:31;2.30;99.90
6114;DHT22;3087;48.392;10.836;2023-04-06T05:31:57;1.20;99.90
6114;DHT22;3087;48.392;10.836;2023-04-06T05:34:23;0.90;99.90
6114;DHT22;3087;48.392;10.836;2023-04-06T05:36:49;2.40;99.90
6114;DHT22;3087;48.392;10.836;2023-04-06T05:39:14;0.70;99.90
6114;DHT22;3087;48.392;10.836;2023-04-06T05:41:41;2.60;99.90
6114;DHT22;3087;48.392;10.836;2023-04-06T05:44:06;-1.40;99.90
6114;DHT22;3087;48.392;10.836;2023-04-06T05:46:32;2.90;99.90
6114;DHT22;3087;48.392;10.836;2023-04-06T05:48:58;0.90;99.90
6114;DHT22;3087;48.392;10.836;2023-04-06T05:51:23;1.20;99.90
6114;DHT22;3087;48.392;10.836;2023-04-06T05:53:49;1.50;99.90
6114;DHT22;3087;48.392;10.836;2023-04-06T05:56:15;1.80;99.90
6114;DHT22;3087;48.392;10.836;2023-04-06T05:58:41;3.10;99.90
6114;DHT22;3087;48.392;10.836;2023-04-06T06:01:06;2.20;99.90
6114;DHT22;3087;48.392;10.836;2023-04-06T06:03:32;2.30;99.90
6114;DHT22;3087;48.392;10.836;2023-04-06T06:06:01;3.00;99.90
6114;DHT22;3087;48.392;10.836;2023-04-06T06:08:28;2.30;99.90
6114;DHT22;3087;48.392;10.836;2023-04-06T06:10:53;2.50;99.90
6114;DHT22;3087;48.392;10.836;2023-04-06T06:13:19;2.50;99.90
6114;DHT22;3087;48.392;10.836;2023-04-06T06:15:46;2.90;99.90
6114;DHT22;3087;48.392;10.836;2023-04-06T06:18:11;2.80;99.90
6114;DHT22;3087;48.392;10.836;2023-04-06T06:20:37;3.00;99.90
6114;DHT22;3087;48.392;10.836;2023-04-06T06:23:02;3.00;99.90
6114;DHT22;3087;48.392;10.836;2023-04-06T06:25:28;3.10;99.90
6114;DHT22;3087;48.392;10.836;2023-04-06T06:27:56;3.30;99.90
6114;DHT22;3087;48.392;10.836;2023-04-06T06:30:22;3.50;99.90
6114;DHT22;3087;48.392;10.836;2023-04-06T06:32:48;3.50;99.90
6114;DHT22;3087;48.392;10.836;2023-04-06T06:35:14;3.50;99.90
6114;DHT22;3087;48.392;10.836;2023-04-06T06:37:39;3.30;99.90
6114;DHT22;3087;48.392;10.836;2023-04-06T06:40:06;5.50;99.90
6114;DHT22;3087;48.392;10.836;2023-04-06T06:42:31;3.30;99.90
6114;DHT22;3087;48.392;10.836;2023-04-06T06:44:57;4.80;99.90
6114;DHT22;3087;48.392;10.836;2023-04-06T06:47:23;3.50;99.90
6114;DHT22;3087;48.392;10.836;2023-04-06T06:49:48;3.60;99.90
6114;DHT22;3087;48.392;10.836;2023-04-06T06:52:14;3.90;99.90
6114;DHT22;3087;48.392;10.836;2023-04-06T06:54:40;3.90;99.90
6114;DHT22;3087;48.392;10.836;2023-04-06T06:57:06;3.90;99.90
6114;DHT22;3087;48.392;10.836;2023-04-06T06:59:31;3.90;99.90
6114;DHT22;3087;48.392;10.836;2023-04-06T07:01:57;5.70;99.90
6114;DHT22;3087;48.392;10.836;2023-04-06T07:04:22;4.00;99.90
6114;DHT22;3087;48.392;10.836;2023-04-06T07:06:48;4.00;99.90
6114;DHT22;3087;48.392;10.836;2023-04-06T07:09:14;4.20;99.90
6114;DHT22;3087;48.392;10.836;2023-04-06T07:11:39;5.20;99.90
6114;DHT22;3087;48.392;10.836;2023-04-06T07:14:05;4.60;99.90
6114;DHT22;3087;48.392;10.836;2023-04-06T07:16:31;4.90;99.90
6114;DHT22;3087;48.392;10.836;2023-04-06T07:18:56;4.90;99.90
6114;DHT22;3087;48.392;10.836;2023-04-06T07:21:22;5.60;99.90
6114;DHT22;3087;48.392;10.836;2023-04-06T07:23:47;4.90;99.90
6114;DHT22;3087;48.392;10.836;2023-04-06T07:26:14;4.70;99.90
6114;DHT22;3087;48.392;10.836;2023-04-06T07:28:39;3.10;99.90
6114;DHT22;3087;48.392;10.836;2023-04-06T07:31:05;4.90;99.90
6114;DHT22;3087;48.392;10.836;2023-04-06T07:33:31;4.90;99.90
6114;DHT22;3087;48.392;10.836;2023-04-06T07:35:57;5.30;99.90
6114;DHT22;3087;48.392;10.836;2023-04-06T07:38:23;5.10;99.90
6114;DHT22;3087;48.392;10.836;2023-04-06T07:40:49;5.20;99.90
6114;DHT22;3087;48.392;10.836;2023-04-06T07:43:15;5.40;99.90
6114;DHT22;3087;48.392;10.836;2023-04-06T07:45:41;5.50;99.90
6114;DHT22;3087;48.392;10.836;2023-04-06T07:48:07;5.70;99.90
6114;DHT22;3087;48.392;10.836;2023-04-06T07:50:33;6.10;99.90
6114;DHT22;3087;48.392;10.836;2023-04-06T07:52:58;5.90;99.90
6114;DHT22;3087;48.392;10.836;2023-04-06T07:55:25;6.00;99.90
6114;DHT22;3087;48.392;10.836;2023-04-06T07:57:50;6.10;99.90
6114;DHT22;3087;48.392;10.836;2023-04-06T08:00:16;6.30;99.90
6114;DHT22;3087;48.392;10.836;2023-04-06T08:02:42;6.50;99.90
6114;DHT22;3087;48.392;10.836;2023-04-06T08:05:08;6.70;99.90
6114;DHT22;3087;48.392;10.836;2023-04-06T08:07:34;6.90;99.90
6114;DHT22;3087;48.392;10.836;2023-04-06T08:10:01;7.00;99.90
6114;DHT22;3087;48.392;10.836;2023-04-06T08:12:27;7.00;99.90
6114;DHT22;3087;48.392;10.836;2023-04-06T08:14:52;7.00;99.90
6114;DHT22;3087;48.392;10.836;2023-04-06T08:17:18;7.10;99.90
6114;DHT22;3087;48.392;10.836;2023-04-06T08:19:44;7.20;99.90
6114;DHT22;3087;48.392;10.836;2023-04-06T08:22:10;7.40;99.90
6114;DHT22;3087;48.392;10.836;2023-04-06T08:24:36;7.50;99.90
6114;DHT22;3087;48.392;10.836;2023-04-06T08:27:01;7.00;99.90
6114;DHT22;3087;48.392;10.836;2023-04-06T08:29:27;7.80;99.90
6114;DHT22;3087;48.392;10.836;2023-04-06T08:31:53;7.90;99.90
6114;DHT22;3087;48.392;10.836;2023-04-06T08:34:19;7.80;99.90
6114;DHT22;3087;48.392;10.836;2023-04-06T08:36:44;8.10;99.90
6114;DHT22;3087;48.392;10.836;2023-04-06T08:39:11;8.20;99.90
6114;DHT22;3087;48.392;10.836;2023-04-06T08:41:37;8.20;99.90
6114;DHT22;3087;48.392;10.836;2023-04-06T08:44:03;8.00;99.90
6114;DHT22;3087;48.392;10.836;2023-04-06T08:46:29;8.10;99.90
6114;DHT22;3087;48.392;10.836;2023-04-06T08:48:57;8.10;99.30
6114;DHT22;3087;48.392;10.836;2023-04-06T08:51:27;8.10;98.20
6114;DHT22;3087;48.392;10.836;2023-04-06T08:53:57;8.10;99.10
6114;DHT22;3087;48.392;10.836;2023-04-06T08:56:24;8.10;99.70
6114;DHT22;3087;48.392;10.836;2023-04-06T08:58:52;8.10;99.30
6114;DHT22;3087;48.392;10.836;2023-04-06T09:01:21;8.20;98.50
6114;DHT22;3087;48.392;10.836;2023-04-06T09:03:49;8.40;98.60
6114;DHT22;3087;48.392;10.836;2023-04-06T09:06:15;8.40;96.50
6114;DHT22;3087;48.392;10.836;2023-04-06T09:08:41;8.50;96.60
6114;DHT22;3087;48.392;10.836;2023-04-06T09:11:08;8.40;96.00
6114;DHT22;3087;48.392;10.836;2023-04-06T09:13:55;8.40;95.00
6114;DHT22;3087;48.392;10.836;2023-04-06T09:16:22;8.60;94.90
6114;DHT22;3087;48.392;10.836;2023-04-06T09:18:51;8.70;94.60
6114;DHT22;3087;48.392;10.836;2023-04-06T09:21:26;8.70;92.70
6114;DHT22;3087;48.392;10.836;2023-04-06T09:24:01;8.70;91.80
6114;DHT22;3087;48.392;10.836;2023-04-06T09:27:01;8.70;92.00
6114;DHT22;3087;48.392;10.836;2023-04-06T09:29:51;8.90;91.60
6114;DHT22;3087;48.392;10.836;2023-04-06T09:32:28;9.10;91.80
6114;DHT22;3087;48.392;10.836;2023-04-06T09:35:07;9.20;91.60
6114;DHT22;3087;48.392;10.836;2023-04-06T09:37:33;9.30;90.80
6114;DHT22;3087;48.392;10.836;2023-04-06T09:40:03;9.50;90.60
6114;DHT22;3087;48.392;10.836;2023-04-06T09:42:31;9.90;90.60
6114;DHT22;3087;48.392;10.836;2023-04-06T09:44:57;10.40;89.00
6114;DHT22;3087;48.392;10.836;2023-04-06T09:47:23;10.90;87.20
6114;DHT22;3087;48.392;10.836;2023-04-06T09:49:51;11.40;83.70
6114;DHT22;3087;48.392;10.836;2023-04-06T09:52:19;11.50;81.40
6114;DHT22;3087;48.392;10.836;2023-04-06T09:54:50;11.90;83.40
6114;DHT22;3087;48.392;10.836;2023-04-06T09:57:28;12.50;80.80
6114;DHT22;3087;48.392;10.836;2023-04-06T10:02:34;13.40;77.60
6114;DHT22;3087;48.392;10.836;2023-04-06T10:05:09;13.90;77.50
6114;DHT22;3087;48.392;10.836;2023-04-06T10:07:39;14.70;75.10
6114;DHT22;3087;48.392;10.836;2023-04-06T10:10:06;15.30;72.30
6114;DHT22;3087;48.392;10.836;2023-04-06T10:12:32;15.30;68.00
6114;DHT22;3087;48.392;10.836;2023-04-06T10:14:58;14.70;67.80
6114;DHT22;3087;48.392;10.836;2023-04-06T10:17:24;14.80;68.30
6114;DHT22;3087;48.392;10.836;2023-04-06T10:20:03;15.20;66.70
6114;DHT22;3087;48.392;10.836;2023-04-06T10:22:45;14.80;65.30
6114;DHT22;3087;48.392;10.836;2023-04-06T10:25:34;15.60;67.20
6114;DHT22;3087;48.392;10.836;2023-04-06T10:28:08;16.40;65.50
6114;DHT22;3087;48.392;10.836;2023-04-06T10:30:42;17.00;63.30
6114;DHT22;3087;48.392;10.836;2023-04-06T10:33:19;16.80;60.70
6114;DHT22;3087;48.392;10.836;2023-04-06T10:35:46;16.40;58.70
6114;DHT22;3087;48.392;10.836;2023-04-06T10:38:11;16.30;59.60
6114;DHT22;3087;48.392;10.836;2023-04-06T10:40:40;16.60;60.50
6114;DHT22;3087;48.392;10.836;2023-04-06T10:43:12;17.10;59.70
6114;DHT22;3087;48.392;10.836;2023-04-06T10:45:39;17.60;60.30
6114;DHT22;3087;48.392;10.836;2023-04-06T10:48:18;17.50;57.20
6114;DHT22;3087;48.392;10.836;2023-04-06T10:50:46;17.70;57.90
6114;DHT22;3087;48.392;10.836;2023-04-06T10:53:26;18.10;58.50
6114;DHT22;3087;48.392;10.836;2023-04-06T10:55:56;18.50;56.90
6114;DHT22;3087;48.392;10.836;2023-04-06T10:58:28;18.50;56.80
6114;DHT22;3087;48.392;10.836;2023-04-06T11:00:55;18.80;57.10
6114;DHT22;3087;48.392;10.836;2023-04-06T11:03:21;19.10;55.60
6114;DHT22;3087;48.392;10.836;2023-04-06T11:05:49;18.70;54.20
6114;DHT22;3087;48.392;10.836;2023-04-06T11:08:30;18.60;54.20
6114;DHT22;3087;48.392;10.836;2023-04-06T11:11:13;18.60;52.50
6114;DHT22;3087;48.392;10.836;2023-04-06T11:13:54;18.00;51.80
6114;DHT22;3087;48.392;10.836;2023-04-06T11:16:21;17.70;54.00
6114;DHT22;3087;48.392;10.836;2023-04-06T11:19:04;17.30;51.70
6114;DHT22;3087;48.392;10.836;2023-04-06T11:24:10;16.30;51.90
6114;DHT22;3087;48.392;10.836;2023-04-06T11:26:43;16.80;54.10
6114;DHT22;3087;48.392;10.836;2023-04-06T11:29:11;16.40;52.10
6114;DHT22;3087;48.392;10.836;2023-04-06T11:31:42;16.70;52.20
6114;DHT22;3087;48.392;10.836;2023-04-06T11:34:12;17.10;55.80
6114;DHT22;3087;48.392;10.836;2023-04-06T11:36:42;17.20;51.80
6114;DHT22;3087;48.392;10.836;2023-04-06T11:39:09;17.30;52.50
6114;DHT22;3087;48.392;10.836;2023-04-06T11:41:35;17.30;52.20
6114;DHT22;3087;48.392;10.836;2023-04-06T11:44:01;17.70;53.10
6114;DHT22;3087;48.392;10.836;2023-04-06T11:46:30;18.10;52.30
6114;DHT22;3087;48.392;10.836;2023-04-06T11:49:00;18.70;52.70
6114;DHT22;3087;48.392;10.836;2023-04-06T11:51:26;19.50;54.60
6114;DHT22;3087;48.392;10.836;2023-04-06T11:53:52;20.00;52.60
6114;DHT22;3087;48.392;10.836;2023-04-06T11:56:28;19.80;51.70
6114;DHT22;3087;48.392;10.836;2023-04-06T11:58:55;20.00;51.10
6114;DHT22;3087;48.392;10.836;2023-04-06T12:01:23;20.10;52.00
6114;DHT22;3087;48.392;10.836;2023-04-06T12:03:50;20.30;49.70
6114;DHT22;3087;48.392;10.836;2023-04-06T12:06:17;20.60;49.70
6114;DHT22;3087;48.392;10.836;2023-04-06T12:08:42;20.50;49.10
6114;DHT22;3087;48.392;10.836;2023-04-06T12:11:08;19.80;50.70
6114;DHT22;3087;48.392;10.836;2023-04-06T12:13:34;19.50;50.70
6114;DHT22;3087;48.392;10.836;2023-04-06T12:16:00;19.50;49.00
6114;DHT22;3087;48.392;10.836;2023-04-06T12:18:25;19.60;50.20
6114;DHT22;3087;48.392;10.836;2023-04-06T12:20:51;19.90;52.30
6114;DHT22;3087;48.392;10.836;2023-04-06T12:23:18;20.60;52.40
6114;DHT22;3087;48.392;10.836;2023-04-06T12:25:45;20.60;50.00
6114;DHT22;3087;48.392;10.836;2023-04-06T12:28:11;20.70;50.30
6114;DHT22;3087;48.392;10.836;2023-04-06T12:30:37;20.60;50.70
6114;DHT22;3087;48.392;10.836;2023-04-06T12:33:02;20.60;50.20
6114;DHT22;3087;48.392;10.836;2023-04-06T12:35:28;20.70;50.10
6114;DHT22;3087;48.392;10.836;2023-04-06T12:37:53;20.90;50.30
6114;DHT22;3087;48.392;10.836;2023-04-06T12:40:20;21.00;50.70
6114;DHT22;3087;48.392;10.836;2023-04-06T12:42:45;21.10;49.70
6114;DHT22;3087;48.392;10.836;2023-04-06T12:45:12;20.80;48.40
6114;DHT22;3087;48.392;10.836;2023-04-06T12:47:38;21.10;49.40
6114;DHT22;3087;48.392;10.836;2023-04-06T12:50:04;21.60;50.00
6114;DHT22;3087;48.392;10.836;2023-04-06T12:52:33;21.30;47.60
6114;DHT22;3087;48.392;10.836;2023-04-06T12:55:01;20.50;46.90
6114;DHT22;3087;48.392;10.836;2023-04-06T12:57:27;20.30;48.20
6114;DHT22;3087;48.392;10.836;2023-04-06T12:59:53;20.00;47.50
6114;DHT22;3087;48.392;10.836;2023-04-06T13:02:19;19.90;46.60
6114;DHT22;3087;48.392;10.836;2023-04-06T13:04:48;19.80;47.00
6114;DHT22;3087;48.392;10.836;2023-04-06T13:07:14;20.50;48.40
6114;DHT22;3087;48.392;10.836;2023-04-06T13:09:40;20.70;45.60
6114;DHT22;3087;48.392;10.836;2023-04-06T13:12:06;20.80;47.10
6114;DHT22;3087;48.392;10.836;2023-04-06T13:14:32;21.40;46.70
6114;DHT22;3087;48.392;10.836;2023-04-06T13:16:57;21.90;45.00
6114;DHT22;3087;48.392;10.836;2023-04-06T13:19:23;22.10;45.40
6114;DHT22;3087;48.392;10.836;2023-04-06T13:21:49;22.80;47.60
6114;DHT22;3087;48.392;10.836;2023-04-06T13:24:15;23.40;45.40
6114;DHT22;3087;48.392;10.836;2023-04-06T13:26:40;23.70;44.80
6114;DHT22;3087;48.392;10.836;2023-04-06T13:29:06;22.70;45.10
6114;DHT22;3087;48.392;10.836;2023-04-06T13:31:32;21.40;42.70
6114;DHT22;3087;48.392;10.836;2023-04-06T13:33:57;20.60;43.60
6114;DHT22;3087;48.392;10.836;2023-04-06T13:36:23;20.70;46.70
6114;DHT22;3087;48.392;10.836;2023-04-06T13:38:50;21.50;47.50
6114;DHT22;3087;48.392;10.836;2023-04-06T13:41:24;22.00;45.70
6114;DHT22;3087;48.392;10.836;2023-04-06T13:43:50;22.60;48.50
6114;DHT22;3087;48.392;10.836;2023-04-06T13:46:16;22.20;47.00
6114;DHT22;3087;48.392;10.836;2023-04-06T13:48:43;21.70;46.80
6114;DHT22;3087;48.392;10.836;2023-04-06T13:51:12;21.30;46.20
6114;DHT22;3087;48.392;10.836;2023-04-06T13:53:39;21.00;46.80
6114;DHT22;3087;48.392;10.836;2023-04-06T13:56:06;21.00;46.20
6114;DHT22;3087;48.392;10.836;2023-04-06T13:58:32;21.20;48.20
6114;DHT22;3087;48.392;10.836;2023-04-06T14:01:07;20.90;43.60
6114;DHT22;3087;48.392;10.836;2023-04-06T14:03:35;20.20;43.60
6114;DHT22;3087;48.392;10.836;2023-04-06T14:06:08;19.80;43.40
6114;DHT22;3087;48.392;10.836;2023-04-06T14:08:35;19.80;44.40
6114;DHT22;3087;48.392;10.836;2023-04-06T14:11:00;20.50;45.60
6114;DHT22;3087;48.392;10.836;2023-04-06T14:13:26;19.90;43.40
6114;DHT22;3087;48.392;10.836;2023-04-06T14:15:54;19.80;44.90
6114;DHT22;3087;48.392;10.836;2023-04-06T14:18:21;19.70;46.00
6114;DHT22;3087;48.392;10.836;2023-04-06T14:20:54;20.00;46.40
6114;DHT22;3087;48.392;10.836;2023-04-06T14:23:20;20.20;46.40
6114;DHT22;3087;48.392;10.836;2023-04-06T14:25:46;20.50;47.20
6114;DHT22;3087;48.392;10.836;2023-04-06T14:28:12;19.80;44.30
6114;DHT22;3087;48.392;10.836;2023-04-06T14:30:37;19.40;44.90
6114;DHT22;3087;48.392;10.836;2023-04-06T14:33:03;19.30;46.30
6114;DHT22;3087;48.392;10.836;2023-04-06T14:35:29;19.00;46.90
6114;DHT22;3087;48.392;10.836;2023-04-06T14:37:57;18.50;45.50
6114;DHT22;3087;48.392;10.836;2023-04-06T14:40:24;18.20;45.40
6114;DHT22;3087;48.392;10.836;2023-04-06T14:42:50;18.20;46.60
6114;DHT22;3087;48.392;10.836;2023-04-06T14:45:20;18.10;45.90
6114;DHT22;3087;48.392;10.836;2023-04-06T14:47:46;17.90;46.90
6114;DHT22;3087;48.392;10.836;2023-04-06T14:50:12;17.60;46.00
6114;DHT22;3087;48.392;10.836;2023-04-06T14:52:38;17.50;47.00
6114;DHT22;3087;48.392;10.836;2023-04-06T14:55:04;17.20;46.70
6114;DHT22;3087;48.392;10.836;2023-04-06T14:57:29;16.80;46.70
6114;DHT22;3087;48.392;10.836;2023-04-06T14:59:56;16.60;47.80
6114;DHT22;3087;48.392;10.836;2023-04-06T15:02:21;16.60;47.60
6114;DHT22;3087;48.392;10.836;2023-04-06T15:04:47;16.40;45.80
6114;DHT22;3087;48.392;10.836;2023-04-06T15:07:13;16.20;45.50
6114;DHT22;3087;48.392;10.836;2023-04-06T15:09:38;15.50;45.60
6114;DHT22;3087;48.392;10.836;2023-04-06T15:12:04;15.20;45.50
6114;DHT22;3087;48.392;10.836;2023-04-06T15:14:30;15.20;46.60
6114;DHT22;3087;48.392;10.836;2023-04-06T15:16:56;15.30;46.80
6114;DHT22;3087;48.392;10.836;2023-04-06T15:19:21;15.10;45.60
6114;DHT22;3087;48.392;10.836;2023-04-06T15:21:47;15.10;46.30
6114;DHT22;3087;48.392;10.836;2023-04-06T15:24:12;15.20;46.00
6114;DHT22;3087;48.392;10.836;2023-04-06T15:26:38;15.20;46.20
6114;DHT22;3087;48.392;10.836;2023-04-06T15:29:04;15.10;45.80
6114;DHT22;3087;48.392;10.836;2023-04-06T15:31:29;15.20;46.60
6114;DHT22;3087;48.392;10.836;2023-04-06T15:33:55;15.00;46.40
6114;DHT22;3087;48.392;10.836;2023-04-06T15:36:28;14.90;46.10
6114;DHT22;3087;48.392;10.836;2023-04-06T15:38:58;14.70;46.70
6114;DHT22;3087;48.392;10.836;2023-04-06T15:41:24;14.60;46.30
6114;DHT22;3087;48.392;10.836;2023-04-06T15:43:51;14.70;46.70
6114;DHT22;3087;48.392;10.836;2023-04-06T15:46:17;14.90;47.40
6114;DHT22;3087;48.392;10.836;2023-04-06T15:48:43;14.90;48.40
6114;DHT22;3087;48.392;10.836;2023-04-06T15:51:09;15.10;48.00
6114;DHT22;3087;48.392;10.836;2023-04-06T15:53:34;15.40;49.10
6114;DHT22;3087;48.392;10.836;2023-04-06T15:56:01;15.80;47.80
6114;DHT22;3087;48.392;10.836;2023-04-06T15:58:28;15.80;47.70